createdAt,value
2017-08-16T00:00:03.511Z,24.97
2017-08-16T00:02:31.282Z,27.23
2017-08-16T00:04:58.687Z,26.30
2017-08-16T00:07:26.088Z,26.23
2017-08-16T00:09:53.859Z,28.20
2017-08-16T00:12:21.259Z,28.13
2017-08-16T00:14:48.653Z,26.67
2017-08-16T00:17:16.099Z,29.30
2017-08-16T00:19:43.495Z,28.60
2017-08-16T00:22:10.906Z,29.80
2017-08-16T00:24:38.416Z,31.40
2017-08-16T00:27:05.815Z,28.53
2017-08-16T00:29:33.216Z,28.47
2017-08-16T00:32:00.640Z,30.37
2017-08-16T00:34:28.037Z,30.87
2017-08-16T00:36:55.648Z,29.50
2017-08-16T00:39:23.196Z,30.03
2017-08-16T00:41:50.599Z,28.00
2017-08-16T00:44:17.995Z,30.03
2017-08-16T00:46:45.442Z,29.87
2017-08-16T00:49:12.840Z,26.80
2017-08-16T00:51:40.244Z,27.00
2017-08-16T00:54:07.659Z,27.20
2017-08-16T00:56:35.060Z,26.77
2017-08-16T00:59:02.460Z,26.70
2017-08-16T01:01:29.868Z,25.73
2017-08-16T01:03:57.264Z,26.60
2017-08-16T01:06:24.672Z,26.13
2017-08-16T01:08:52.228Z,24.57
2017-08-16T01:11:19.691Z,25.53
2017-08-16T01:13:47.076Z,27.23
2017-08-16T01:16:14.806Z,25.77
2017-08-16T01:18:42.206Z,25.47
2017-08-16T01:21:09.612Z,25.90
2017-08-16T01:23:37.175Z,25.90
2017-08-16T01:26:04.586Z,28.53
2017-08-16T01:28:31.993Z,26.33
2017-08-16T01:30:59.442Z,28.33
2017-08-16T01:33:26.844Z,26.50
2017-08-16T01:35:54.260Z,27.13
2017-08-16T01:38:21.778Z,25.37
2017-08-16T01:40:49.179Z,28.23
2017-08-16T01:43:16.580Z,27.40
2017-08-16T01:45:44.009Z,24.60
2017-08-16T01:48:11.411Z,23.53
2017-08-16T01:50:38.807Z,28.10
2017-08-16T01:53:06.672Z,27.23
2017-08-16T01:55:34.074Z,26.83
2017-08-16T01:58:01.469Z,27.37
2017-08-16T02:00:29.028Z,28.13
2017-08-16T02:02:56.418Z,26.70
2017-08-16T02:05:23.819Z,31.07
2017-08-16T02:07:51.379Z,29.30
2017-08-16T02:10:18.777Z,30.07
2017-08-16T02:12:46.176Z,26.67
2017-08-16T02:15:13.591Z,30.57
2017-08-16T02:17:40.994Z,27.37
2017-08-16T02:20:08.391Z,27.67
2017-08-16T02:22:36.156Z,25.03
2017-08-16T02:25:03.583Z,29.20
2017-08-16T02:27:30.984Z,26.67
2017-08-16T02:29:58.407Z,28.90
2017-08-16T02:32:25.808Z,26.77
2017-08-16T02:34:53.207Z,26.27
2017-08-16T02:37:20.648Z,26.40
2017-08-16T02:39:48.057Z,31.23
2017-08-16T02:42:15.450Z,30.73
2017-08-16T02:44:43.003Z,30.87
2017-08-16T02:47:10.396Z,31.40
2017-08-16T02:49:37.801Z,32.80
2017-08-16T02:52:05.639Z,29.97
2017-08-16T02:54:33.035Z,29.07
2017-08-16T02:57:00.447Z,25.97
2017-08-16T02:59:27.994Z,26.87
2017-08-16T03:01:55.395Z,29.50
2017-08-16T03:04:22.794Z,31.30
2017-08-16T03:06:50.502Z,30.97
2017-08-16T03:09:17.898Z,29.27
2017-08-16T03:11:45.302Z,29.40
2017-08-16T03:14:12.807Z,27.53
2017-08-16T03:16:40.203Z,26.80
2017-08-16T03:19:07.602Z,30.10
2017-08-16T03:21:35.158Z,30.90
2017-08-16T03:24:02.562Z,34.23
2017-08-16T03:26:29.960Z,30.33
2017-08-16T03:28:57.588Z,28.40
2017-08-16T03:31:24.992Z,29.90
2017-08-16T03:33:52.387Z,29.37
2017-08-16T03:36:19.943Z,31.60
2017-08-16T03:38:47.338Z,28.37
2017-08-16T03:41:14.741Z,28.37
2017-08-16T03:43:42.248Z,26.47
2017-08-16T03:46:09.647Z,32.27
2017-08-16T03:48:37.043Z,32.90
2017-08-16T03:51:04.451Z,29.83
2017-08-16T03:53:31.854Z,27.20
2017-08-16T03:55:59.260Z,28.83
2017-08-16T03:58:26.705Z,27.43
2017-08-16T04:00:54.096Z,24.73
2017-08-16T04:03:21.494Z,26.57
2017-08-16T04:05:49.270Z,24.07
2017-08-16T04:08:16.671Z,24.70
2017-08-16T04:10:44.070Z,24.63
2017-08-16T04:13:11.496Z,25.30
2017-08-16T04:15:38.898Z,24.87
2017-08-16T04:18:06.295Z,26.67
2017-08-16T04:20:34.025Z,24.20
2017-08-16T04:23:01.427Z,30.17
2017-08-16T04:25:28.822Z,29.47
2017-08-16T04:27:56.384Z,28.47
2017-08-16T04:30:23.775Z,27.00
2017-08-16T04:32:51.183Z,25.67
2017-08-16T04:35:18.625Z,27.00
2017-08-16T04:37:46.028Z,31.33
2017-08-16T04:40:13.419Z,32.40
2017-08-16T04:42:40.834Z,32.13
2017-08-16T04:45:08.259Z,31.33
2017-08-16T04:47:35.718Z,28.43
2017-08-16T04:50:03.511Z,31.17
2017-08-16T04:52:30.916Z,31.10
2017-08-16T04:54:58.310Z,27.60
2017-08-16T04:57:26.067Z,32.50
2017-08-16T04:59:53.473Z,33.47
2017-08-16T05:02:20.879Z,30.13
2017-08-16T05:04:48.666Z,30.60
2017-08-16T05:07:16.064Z,31.87
2017-08-16T05:09:43.482Z,34.80
2017-08-16T05:12:10.900Z,27.70
2017-08-16T05:14:38.358Z,33.27
2017-08-16T05:17:05.890Z,34.40
2017-08-16T05:19:33.295Z,37.30
2017-08-16T05:22:00.694Z,41.80
2017-08-16T05:24:28.098Z,34.93
2017-08-16T05:26:55.499Z,39.23
2017-08-16T05:29:23.092Z,32.33
2017-08-16T05:31:50.487Z,35.13
2017-08-16T05:34:17.899Z,32.00
2017-08-16T05:36:45.308Z,29.30
2017-08-16T05:39:12.703Z,31.33
2017-08-16T05:41:40.267Z,32.33
2017-08-16T05:44:07.666Z,34.83
2017-08-16T05:46:35.071Z,32.93
2017-08-16T05:49:02.471Z,30.30
2017-08-16T05:51:29.867Z,37.40
2017-08-16T05:53:57.854Z,35.97
2017-08-16T05:56:25.261Z,33.30
2017-08-16T05:58:52.650Z,39.90
2017-08-16T06:01:20.064Z,38.60
2017-08-16T06:03:47.472Z,39.20
2017-08-16T06:06:15.056Z,41.07
2017-08-16T06:08:42.467Z,39.60
2017-08-16T06:11:09.878Z,40.70
2017-08-16T06:13:37.290Z,38.80
2017-08-16T06:16:04.699Z,42.83
2017-08-16T06:18:32.219Z,43.30
2017-08-16T06:20:59.608Z,35.47
2017-08-16T06:23:27.007Z,40.00
2017-08-16T06:25:54.424Z,40.03
2017-08-16T06:28:21.823Z,40.70
2017-08-16T06:30:49.407Z,42.47
2017-08-16T06:33:16.795Z,42.57
2017-08-16T06:35:44.225Z,44.30
2017-08-16T06:38:11.617Z,41.97
2017-08-16T06:40:39.014Z,41.67
2017-08-16T06:43:06.419Z,40.30
2017-08-16T06:45:33.831Z,39.33
2017-08-16T06:48:01.245Z,35.73
2017-08-16T06:50:28.643Z,39.47
2017-08-16T06:52:56.587Z,42.27
2017-08-16T06:55:23.986Z,39.53
2017-08-16T06:57:51.382Z,33.10
2017-08-16T07:00:18.783Z,39.10
2017-08-16T07:02:46.179Z,39.57
2017-08-16T07:05:13.754Z,43.90
2017-08-16T07:07:41.150Z,43.30
2017-08-16T07:10:08.558Z,43.00
2017-08-16T07:12:35.967Z,44.60
2017-08-16T07:15:03.362Z,43.23
2017-08-16T07:17:30.816Z,39.40
2017-08-16T07:19:58.223Z,44.83
2017-08-16T07:22:25.624Z,40.10
2017-08-16T07:24:53.027Z,44.80
2017-08-16T07:27:20.424Z,38.50
2017-08-16T07:29:47.939Z,44.27
2017-08-16T07:32:15.339Z,40.57
2017-08-16T07:34:42.732Z,39.43
2017-08-16T07:37:10.136Z,44.67
2017-08-16T07:39:37.534Z,42.33
2017-08-16T07:42:05.128Z,43.07
2017-08-16T07:44:32.520Z,42.40
2017-08-16T07:46:59.919Z,38.67
2017-08-16T07:49:27.319Z,39.83
2017-08-16T07:51:54.719Z,40.57
2017-08-16T07:54:22.228Z,36.00
2017-08-16T07:56:49.639Z,34.73
2017-08-16T07:59:17.040Z,36.37
2017-08-16T08:01:44.451Z,36.10
2017-08-16T08:04:11.847Z,34.47
2017-08-16T08:06:39.355Z,35.93
2017-08-16T08:09:06.756Z,34.53
2017-08-16T08:11:34.158Z,32.97
2017-08-16T08:14:01.559Z,32.47
2017-08-16T08:16:28.955Z,33.27
2017-08-16T08:18:56.467Z,33.47
2017-08-16T08:21:23.864Z,32.17
2017-08-16T08:23:51.254Z,29.13
2017-08-16T08:26:18.655Z,30.53
2017-08-16T08:28:46.065Z,31.40
2017-08-16T08:31:13.500Z,30.03
2017-08-16T08:33:40.896Z,29.23
2017-08-16T08:36:08.295Z,30.27
2017-08-16T08:38:35.703Z,27.23
2017-08-16T08:41:03.104Z,27.83
2017-08-16T08:43:30.736Z,28.27
2017-08-16T08:45:58.131Z,26.90
2017-08-16T08:48:25.536Z,30.60
2017-08-16T08:50:52.938Z,29.53
2017-08-16T08:53:20.343Z,28.50
2017-08-16T08:55:47.787Z,30.17
2017-08-16T08:58:15.191Z,28.17
2017-08-16T09:00:42.595Z,27.17
2017-08-16T09:03:10.004Z,27.10
2017-08-16T09:05:37.403Z,27.87
2017-08-16T09:08:05.103Z,26.73
2017-08-16T09:10:32.501Z,26.23
2017-08-16T09:12:59.904Z,25.00
2017-08-16T09:15:27.306Z,24.80
2017-08-16T09:17:54.710Z,25.90
2017-08-16T09:20:22.267Z,23.60
2017-08-16T09:22:49.668Z,24.07
2017-08-16T09:25:17.067Z,25.23
2017-08-16T09:27:44.476Z,26.63
2017-08-16T09:30:11.867Z,26.70
2017-08-16T09:32:39.284Z,26.07
2017-08-16T09:35:06.697Z,23.70
2017-08-16T09:37:34.093Z,25.73
2017-08-16T09:40:01.501Z,23.93
2017-08-16T09:42:28.897Z,24.57
2017-08-16T09:44:56.558Z,23.40
2017-08-16T09:47:23.954Z,23.30
2017-08-16T09:49:51.356Z,21.77
2017-08-16T09:52:18.779Z,20.63
2017-08-16T09:54:46.179Z,20.60
2017-08-16T09:57:13.616Z,20.27
2017-08-16T09:59:41.030Z,20.80
2017-08-16T10:02:08.427Z,20.87
2017-08-16T10:04:35.839Z,19.10
2017-08-16T10:07:03.246Z,19.87
2017-08-16T10:09:30.687Z,18.53
2017-08-16T10:11:58.092Z,19.97
2017-08-16T10:14:25.492Z,19.80
2017-08-16T10:16:52.906Z,19.23
2017-08-16T10:19:20.308Z,19.30
2017-08-16T10:21:48.003Z,20.80
2017-08-16T10:24:15.398Z,21.00
2017-08-16T10:26:42.795Z,21.20
2017-08-16T10:29:10.206Z,20.60
2017-08-16T10:31:37.607Z,18.33
2017-08-16T10:34:05.164Z,19.57
2017-08-16T10:36:32.563Z,18.63
2017-08-16T10:38:59.962Z,18.67
2017-08-16T10:41:27.362Z,20.40
2017-08-16T10:43:54.764Z,20.83
2017-08-16T10:46:22.188Z,19.23
2017-08-16T10:48:49.583Z,19.40
2017-08-16T10:51:16.986Z,19.57
2017-08-16T10:53:44.393Z,20.33
2017-08-16T10:56:11.788Z,20.30
2017-08-16T10:58:39.339Z,20.43
2017-08-16T11:01:06.737Z,20.87
2017-08-16T11:03:34.137Z,19.30
2017-08-16T11:06:01.547Z,19.10
2017-08-16T11:08:28.944Z,19.70
2017-08-16T11:10:56.456Z,19.53
2017-08-16T11:13:23.855Z,18.20
2017-08-16T11:15:51.256Z,18.40
2017-08-16T11:18:18.664Z,20.17
2017-08-16T11:20:46.064Z,20.63
2017-08-16T11:23:13.484Z,19.53
2017-08-16T11:25:40.879Z,18.40
2017-08-16T11:28:08.283Z,19.63
2017-08-16T11:30:35.688Z,17.50
2017-08-16T11:33:03.098Z,19.40
2017-08-16T11:35:30.543Z,18.53
2017-08-16T11:37:57.947Z,18.33
2017-08-16T11:40:25.341Z,17.60
2017-08-16T11:42:52.743Z,17.80
2017-08-16T11:45:20.139Z,17.57
2017-08-16T11:47:47.697Z,17.17
2017-08-16T11:50:15.102Z,18.77
2017-08-16T11:52:42.509Z,19.50
2017-08-16T11:55:09.916Z,18.50
2017-08-16T11:57:37.312Z,17.97
2017-08-16T12:00:04.824Z,16.93
2017-08-16T12:02:32.219Z,17.70
2017-08-16T12:04:59.612Z,17.03
2017-08-16T12:07:27.021Z,16.80
2017-08-16T12:09:54.462Z,15.27
2017-08-16T12:12:21.983Z,15.20
2017-08-16T12:14:49.379Z,14.10
2017-08-16T12:17:16.779Z,14.07
2017-08-16T12:19:44.527Z,12.90
2017-08-16T12:22:11.936Z,13.30
2017-08-16T12:24:39.345Z,15.83
2017-08-16T12:27:06.784Z,15.13
2017-08-16T12:29:34.185Z,15.20
2017-08-16T12:32:01.585Z,15.57
2017-08-16T12:34:29.839Z,15.33
2017-08-16T12:36:57.239Z,15.17
2017-08-16T12:39:24.794Z,15.07
2017-08-16T12:41:52.195Z,15.23
2017-08-16T12:44:19.591Z,15.03
2017-08-16T12:46:46.999Z,15.17
2017-08-16T12:49:14.404Z,15.67
2017-08-16T12:51:42.093Z,14.97
2017-08-16T12:54:09.508Z,15.03
2017-08-16T12:56:36.906Z,16.37
2017-08-16T12:59:04.311Z,15.83
2017-08-16T13:01:31.711Z,16.10
2017-08-16T13:03:59.123Z,16.70
2017-08-16T13:06:26.536Z,16.53
2017-08-16T13:08:53.930Z,16.40
2017-08-16T13:11:21.348Z,17.50
2017-08-16T13:13:48.748Z,18.07
2017-08-16T13:16:16.305Z,17.07
2017-08-16T13:18:43.695Z,17.17
2017-08-16T13:21:11.091Z,17.53
2017-08-16T13:23:38.495Z,16.87
2017-08-16T13:26:05.900Z,17.70
2017-08-16T13:28:33.343Z,16.73
2017-08-16T13:31:00.751Z,16.93
2017-08-16T13:33:28.147Z,17.63
2017-08-16T13:35:55.547Z,17.97
2017-08-16T13:38:22.951Z,17.10
2017-08-16T13:40:50.511Z,17.53
2017-08-16T13:43:17.903Z,17.43
2017-08-16T13:45:45.305Z,17.20
2017-08-16T13:48:12.711Z,18.57
2017-08-16T13:50:40.126Z,18.47
2017-08-16T13:53:07.639Z,18.40
2017-08-16T13:55:35.037Z,19.07
2017-08-16T13:58:02.435Z,18.40
2017-08-16T14:00:29.845Z,17.93
2017-08-16T14:02:57.243Z,17.70
2017-08-16T14:05:24.687Z,18.33
2017-08-16T14:07:52.083Z,18.13
2017-08-16T14:10:19.478Z,18.00
2017-08-16T14:12:46.879Z,17.80
2017-08-16T14:15:14.277Z,17.77
2017-08-16T14:17:42.081Z,18.67
2017-08-16T14:20:09.483Z,18.23
2017-08-16T14:22:36.882Z,18.50
2017-08-16T14:25:04.291Z,18.73
2017-08-16T14:27:31.691Z,19.23
2017-08-16T14:29:59.111Z,17.20
2017-08-16T14:32:26.507Z,18.10
2017-08-16T14:34:53.921Z,17.20
2017-08-16T14:37:21.324Z,17.80
2017-08-16T14:39:48.728Z,18.50
2017-08-16T14:42:16.173Z,18.57
2017-08-16T14:44:43.580Z,18.03
2017-08-16T14:47:10.992Z,19.80
2017-08-16T14:49:38.416Z,18.47
2017-08-16T14:52:05.810Z,17.80
2017-08-16T14:54:33.529Z,17.17
2017-08-16T14:57:00.923Z,19.77
2017-08-16T14:59:28.321Z,19.80
2017-08-16T15:01:55.732Z,18.47
2017-08-16T15:04:23.123Z,18.10
2017-08-16T15:06:50.887Z,18.87
2017-08-16T15:09:18.286Z,18.50
2017-08-16T15:11:45.683Z,19.60
2017-08-16T15:14:13.099Z,19.30
2017-08-16T15:16:40.512Z,18.57
2017-08-16T15:19:08.022Z,19.57
2017-08-16T15:21:35.428Z,18.73
2017-08-16T15:24:02.831Z,16.60
2017-08-16T15:26:30.232Z,19.80
2017-08-16T15:28:57.640Z,18.63
2017-08-16T15:31:25.154Z,17.70
2017-08-16T15:33:52.543Z,16.90
2017-08-16T15:36:19.940Z,18.40
2017-08-16T15:38:47.347Z,17.27
2017-08-16T15:41:14.756Z,17.23
2017-08-16T15:43:42.303Z,18.50
2017-08-16T15:46:09.707Z,17.00
2017-08-16T15:48:37.107Z,18.70
2017-08-16T15:51:04.527Z,19.20
2017-08-16T15:53:31.979Z,17.57
2017-08-16T15:55:59.424Z,19.03
2017-08-16T15:58:26.824Z,18.20
2017-08-16T16:00:54.234Z,18.77
2017-08-16T16:03:21.643Z,16.90
2017-08-16T16:05:49.039Z,17.90
2017-08-16T16:08:16.468Z,19.90
2017-08-16T16:10:43.876Z,18.33
2017-08-16T16:13:11.278Z,18.33
2017-08-16T16:15:38.686Z,19.13
2017-08-16T16:18:06.094Z,18.10
2017-08-16T16:20:33.604Z,17.73
2017-08-16T16:23:01.017Z,16.60
2017-08-16T16:25:28.415Z,16.00
2017-08-16T16:27:55.824Z,16.77
2017-08-16T16:30:23.224Z,15.60
2017-08-16T16:32:50.632Z,16.40
2017-08-16T16:35:18.039Z,16.23
2017-08-16T16:37:45.434Z,15.90
2017-08-16T16:40:12.845Z,17.43
2017-08-16T16:42:40.239Z,17.13
2017-08-16T16:45:07.694Z,14.93
2017-08-16T16:47:35.100Z,16.97
2017-08-16T16:50:02.500Z,14.60
2017-08-16T16:52:29.903Z,15.87
2017-08-16T16:54:57.299Z,16.13
2017-08-16T16:57:24.872Z,16.30
2017-08-16T16:59:52.275Z,16.40
2017-08-16T17:02:19.681Z,17.33
2017-08-16T17:04:47.100Z,17.43
2017-08-16T17:07:14.504Z,17.20
2017-08-16T17:09:42.247Z,16.00
2017-08-16T17:12:09.642Z,15.77
2017-08-16T17:14:37.052Z,16.10
2017-08-16T17:17:04.447Z,16.40
2017-08-16T17:19:31.851Z,16.40
2017-08-16T17:21:59.291Z,17.23
2017-08-16T17:24:26.692Z,18.13
2017-08-16T17:26:54.091Z,17.20
2017-08-16T17:29:21.498Z,17.00
2017-08-16T17:31:48.919Z,17.20
2017-08-16T17:34:16.320Z,17.70
2017-08-16T17:36:43.739Z,17.67
2017-08-16T17:39:11.149Z,17.90
2017-08-16T17:41:38.548Z,17.13
2017-08-16T17:44:06.250Z,18.80
2017-08-16T17:46:33.655Z,17.40
2017-08-16T17:49:01.052Z,17.80
2017-08-16T17:51:28.823Z,16.20
2017-08-16T17:53:56.229Z,17.93
2017-08-16T17:56:23.627Z,16.80
2017-08-16T17:58:51.047Z,17.60
2017-08-16T18:01:18.442Z,18.77
2017-08-16T18:03:46.129Z,17.93
2017-08-16T18:06:13.518Z,17.30
2017-08-16T18:08:40.912Z,17.53
2017-08-16T18:11:08.326Z,17.40
2017-08-16T18:13:35.722Z,16.90
2017-08-16T18:16:03.399Z,17.77
2017-08-16T18:18:30.794Z,18.07
2017-08-16T18:20:58.195Z,17.20
2017-08-16T18:23:25.604Z,18.20
2017-08-16T18:25:53.001Z,16.90
2017-08-16T18:28:20.426Z,17.97
2017-08-16T18:30:47.830Z,18.27
2017-08-16T18:33:15.231Z,17.70
2017-08-16T18:35:42.635Z,16.33
2017-08-16T18:38:10.036Z,17.57
2017-08-16T18:40:37.557Z,17.33
2017-08-16T18:43:04.951Z,17.77
2017-08-16T18:45:32.375Z,16.60
2017-08-16T18:47:59.775Z,16.80
2017-08-16T18:50:27.177Z,17.93
2017-08-16T18:52:54.587Z,18.43
2017-08-16T18:55:21.987Z,17.40
2017-08-16T18:57:49.383Z,18.80
2017-08-16T19:00:16.790Z,18.70
2017-08-16T19:02:44.191Z,18.23
2017-08-16T19:05:11.757Z,17.60
2017-08-16T19:07:39.159Z,16.93
2017-08-16T19:10:06.567Z,18.47
2017-08-16T19:12:33.970Z,17.77
2017-08-16T19:15:01.391Z,16.87
2017-08-16T19:17:28.811Z,17.47
2017-08-16T19:19:56.264Z,16.93
2017-08-16T19:22:23.661Z,18.57
2017-08-16T19:24:51.052Z,18.13
2017-08-16T19:27:18.447Z,17.83
2017-08-16T19:29:45.894Z,19.40
2017-08-16T19:32:13.296Z,18.20
2017-08-16T19:34:40.703Z,17.17
2017-08-16T19:37:08.107Z,16.43
2017-08-16T19:39:35.507Z,16.80
2017-08-16T19:42:03.160Z,17.23
2017-08-16T19:44:30.552Z,18.17
2017-08-16T19:46:57.956Z,16.50
2017-08-16T19:49:25.360Z,18.20
2017-08-16T19:51:52.760Z,18.77
2017-08-16T19:54:20.168Z,17.63
2017-08-16T19:56:47.571Z,17.30
2017-08-16T19:59:14.977Z,17.37
2017-08-16T20:01:42.380Z,18.10
2017-08-16T20:04:09.788Z,16.97
2017-08-16T20:06:37.295Z,17.03
2017-08-16T20:09:04.691Z,19.40
2017-08-16T20:11:32.100Z,18.87
2017-08-16T20:13:59.550Z,18.30
2017-08-16T20:16:26.923Z,18.93
2017-08-16T20:18:54.357Z,18.33
2017-08-16T20:21:21.755Z,16.93
2017-08-16T20:23:49.156Z,18.70
2017-08-16T20:26:16.556Z,17.10
2017-08-16T20:28:43.968Z,17.70
2017-08-16T20:31:11.516Z,17.20
2017-08-16T20:33:38.912Z,18.00
2017-08-16T20:36:06.319Z,18.77
2017-08-16T20:38:33.730Z,18.40
2017-08-16T20:41:01.127Z,18.40
2017-08-16T20:43:28.684Z,19.53
2017-08-16T20:45:56.100Z,20.10
2017-08-16T20:48:23.499Z,20.07
2017-08-16T20:50:50.909Z,18.07
2017-08-16T20:53:18.303Z,18.70
2017-08-16T20:55:45.760Z,19.50
2017-08-16T20:58:13.159Z,20.13
2017-08-16T21:00:40.563Z,19.03
2017-08-16T21:03:07.967Z,20.00
2017-08-16T21:05:35.367Z,18.70
2017-08-16T21:08:02.924Z,20.00
2017-08-16T21:10:30.327Z,20.27
2017-08-16T21:12:57.722Z,17.80
2017-08-16T21:15:25.136Z,19.80
2017-08-16T21:17:52.543Z,20.00
2017-08-16T21:20:20.107Z,19.63
2017-08-16T21:22:47.504Z,19.07
2017-08-16T21:25:14.908Z,19.10
2017-08-16T21:27:42.315Z,18.87
2017-08-16T21:30:09.720Z,19.13
2017-08-16T21:32:37.427Z,19.77
2017-08-16T21:35:04.826Z,17.93
2017-08-16T21:37:32.235Z,18.13
2017-08-16T21:39:59.652Z,17.63
2017-08-16T21:42:27.042Z,16.57
2017-08-16T21:44:54.596Z,17.87
2017-08-16T21:47:22.001Z,18.17
2017-08-16T21:49:49.395Z,18.07
2017-08-16T21:52:16.802Z,17.50
2017-08-16T21:54:44.224Z,17.27
2017-08-16T21:57:11.784Z,16.83
2017-08-16T21:59:39.192Z,17.47
2017-08-16T22:02:06.599Z,18.60
2017-08-16T22:04:33.998Z,17.13
2017-08-16T22:07:01.396Z,17.40
2017-08-16T22:09:28.913Z,17.30
2017-08-16T22:11:56.381Z,16.83
2017-08-16T22:14:23.783Z,17.13
2017-08-16T22:16:51.193Z,16.60
2017-08-16T22:19:18.616Z,17.57
2017-08-16T22:21:46.108Z,17.13
2017-08-16T22:24:13.524Z,17.73
2017-08-16T22:26:40.919Z,17.30
2017-08-16T22:29:08.329Z,18.40
2017-08-16T22:31:35.748Z,18.40
2017-08-16T22:34:03.357Z,17.40
2017-08-16T22:36:30.755Z,18.37
2017-08-16T22:38:58.155Z,18.63
2017-08-16T22:41:25.583Z,17.90
2017-08-16T22:43:53.021Z,18.13
2017-08-16T22:46:20.467Z,18.67
2017-08-16T22:48:47.871Z,19.87
2017-08-16T22:51:15.299Z,18.40
2017-08-16T22:53:42.699Z,17.37
2017-08-16T22:56:10.100Z,18.23
2017-08-16T22:58:37.663Z,18.47
2017-08-16T23:01:05.079Z,18.37
2017-08-16T23:17:44.555Z,17.63
2017-08-16T23:20:12.123Z,16.80
2017-08-16T23:22:39.518Z,16.97
2017-08-16T23:25:06.910Z,17.97
2017-08-16T23:27:34.310Z,18.87
2017-08-16T23:30:01.707Z,18.77
2017-08-16T23:32:29.287Z,18.40
2017-08-16T23:34:56.689Z,18.20
2017-08-16T23:37:24.086Z,18.00
2017-08-16T23:39:51.487Z,19.97
2017-08-16T23:42:18.884Z,20.40
2017-08-16T23:44:46.551Z,18.23
2017-08-16T23:47:13.942Z,18.53
2017-08-16T23:49:41.343Z,18.87
2017-08-16T23:52:08.747Z,18.73
2017-08-16T23:54:36.156Z,19.40
2017-08-16T23:57:03.722Z,18.60
2017-08-16T23:59:31.123Z,17.70
